Time;durP1;ratioP1;P1;durP2;ratioP2;P2;SDS_P1;SDS_P2;PMS_P1;PMS_P2;Temp;Humidity;BMP_temperature;BMP_pressure;BME280_temperature;BME280_humidity;BME280_pressure;Samples;Min_cycle;Max_cycle;Signal;HPM_P1;HPM_P2
2021/03/14 00:00:12;;;;;;;1.80;1.17;;;;;;;1.92;100.00;96714.41;5013828;28;20526;-69
2021/03/14 00:02:39;;;;;;;1.87;1.77;;;;;;;1.90;100.00;96729.38;5011749;28;20213;-67
2021/03/14 00:05:07;;;;;;;1.80;1.33;;;;;;;1.87;100.00;96725.25;5015409;28;20200;-68
2021/03/14 00:07:36;;;;;;;1.50;1.50;;;;;;;1.89;100.00;96728.56;5013940;28;20217;-69
2021/03/14 00:10:04;;;;;;;1.83;1.27;;;;;;;1.85;100.00;96727.19;5016029;28;20593;-69
2021/03/14 00:12:31;;;;;;;1.73;1.30;;;;;;;1.81;100.00;96738.88;5013554;28;20208;-69
2021/03/14 00:14:58;;;;;;;1.33;0.90;;;;;;;1.80;100.00;96734.63;5012509;28;20197;-69
2021/03/14 00:17:25;;;;;;;1.03;0.90;;;;;;;1.84;100.00;96736.00;5013306;28;20229;-68
2021/03/14 00:19:52;;;;;;;1.97;1.23;;;;;;;1.81;100.00;96725.81;5009870;28;20205;-68
2021/03/14 00:22:19;;;;;;;1.03;1.03;;;;;;;1.85;100.00;96711.50;5011972;28;20212;-69
2021/03/14 00:24:47;;;;;;;2.93;1.33;;;;;;;1.91;100.00;96717.97;5016818;28;20223;-69
2021/03/14 00:27:14;;;;;;;1.70;1.60;;;;;;;1.87;100.00;96723.44;5015279;28;20212;-67
2021/03/14 00:29:41;;;;;;;1.97;1.37;;;;;;;1.87;100.00;96722.63;5015249;28;20215;-68
2021/03/14 00:32:08;;;;;;;1.07;1.07;;;;;;;1.86;100.00;96729.63;5015149;28;20207;-67
2021/03/14 00:34:35;;;;;;;1.57;1.43;;;;;;;1.89;100.00;96723.31;5011828;28;20572;-68
2021/03/14 00:37:03;;;;;;;1.90;1.80;;;;;;;1.92;100.00;96715.19;5015086;28;20412;-67
2021/03/14 00:39:29;;;;;;;2.03;1.13;;;;;;;1.87;100.00;96714.81;5010130;28;20207;-66
2021/03/14 00:41:57;;;;;;;1.70;1.00;;;;;;;1.93;100.00;96722.06;5014631;28;20205;-68
2021/03/14 00:44:24;;;;;;;0.90;0.90;;;;;;;1.88;100.00;96722.47;5011051;28;20213;-69
2021/03/14 00:46:51;;;;;;;2.80;1.20;;;;;;;1.89;100.00;96731.16;5015457;28;20206;-67
2021/03/14 00:49:19;;;;;;;1.23;1.23;;;;;;;1.84;100.00;96742.03;5015015;28;20244;-68
2021/03/14 00:51:47;;;;;;;2.20;1.27;;;;;;;1.83;100.00;96752.63;5015286;28;20632;-68
2021/03/14 00:54:14;;;;;;;2.77;1.53;;;;;;;1.87;99.68;96739.13;5018145;28;20661;-67
2021/03/14 00:56:41;;;;;;;1.73;1.63;;;;;;;1.81;100.00;96726.63;5013343;28;20212;-68
2021/03/14 00:59:10;;;;;;;1.33;1.03;;;;;;;1.82;100.00;96736.13;5014119;28;20223;-68
2021/03/14 01:01:37;;;;;;;1.40;1.30;;;;;;;1.80;100.00;96721.56;5009984;28;20212;-68
2021/03/14 01:04:05;;;;;;;1.57;1.47;;;;;;;1.81;100.00;96731.84;5014074;28;20205;-69
2021/03/14 01:06:32;;;;;;;1.50;1.40;;;;;;;1.76;100.00;96736.69;5010835;28;20204;-68
2021/03/14 01:08:59;;;;;;;1.13;1.13;;;;;;;1.79;100.00;96732.97;5013906;28;20225;-67
2021/03/14 01:11:26;;;;;;;3.07;1.47;;;;;;;1.70;100.00;96748.50;5013114;28;20619;-68
2021/03/14 01:13:54;;;;;;;3.70;2.00;;;;;;;1.75;100.00;96747.28;5004933;28;20842;-69
2021/03/14 01:16:22;;;;;;;2.20;1.40;;;;;;;1.69;100.00;96762.50;5014408;28;20193;-69
2021/03/14 01:18:52;;;;;;;2.27;1.17;;;;;;;1.70;100.00;96761.56;5005656;28;20233;-69
2021/03/14 01:21:19;;;;;;;1.27;1.27;;;;;;;1.72;100.00;96767.50;5006647;28;20289;-68
2021/03/14 01:23:46;;;;;;;1.33;1.00;;;;;;;1.75;100.00;96763.75;5002738;28;20208;-68
2021/03/14 01:26:13;;;;;;;3.43;1.17;;;;;;;1.73;100.00;96755.25;5013605;28;20215;-67
2021/03/14 01:28:40;;;;;;;3.20;1.20;;;;;;;1.80;100.00;96773.81;5007836;28;20254;-69
2021/03/14 01:31:07;;;;;;;1.30;1.20;;;;;;;1.88;100.00;96769.50;5009178;28;20219;-69
2021/03/14 01:33:35;;;;;;;2.43;1.10;;;;;;;1.79;100.00;96769.53;5008029;28;20215;-70
2021/03/14 01:36:02;;;;;;;1.00;0.97;;;;;;;1.78;100.00;96779.16;5010348;28;20788;-69
2021/03/14 01:38:29;;;;;;;1.10;1.10;;;;;;;1.73;100.00;96766.53;5006116;28;20709;-68
2021/03/14 01:40:56;;;;;;;1.97;1.43;;;;;;;1.64;100.00;96775.16;5002093;28;20212;-69
2021/03/14 01:43:23;;;;;;;1.50;1.40;;;;;;;1.62;100.00;96774.47;5004436;28;20597;-69
2021/03/14 01:45:51;;;;;;;1.20;1.20;;;;;;;1.70;100.00;96766.78;5004878;28;20212;-69
2021/03/14 01:48:20;;;;;;;2.23;1.57;;;;;;;1.73;100.00;96774.38;5007741;28;20220;-69
2021/03/14 01:50:49;;;;;;;2.07;1.50;;;;;;;1.73;100.00;96770.91;5002550;28;20220;-68
2021/03/14 01:53:17;;;;;;;1.13;1.13;;;;;;;1.83;100.00;96763.06;5006711;28;20204;-69
2021/03/14 01:55:44;;;;;;;1.03;1.03;;;;;;;1.79;100.00;96764.31;5015955;28;20222;-70
2021/03/14 01:58:11;;;;;;;1.00;1.00;;;;;;;1.80;100.00;96758.13;5003125;28;20237;-67
2021/03/14 02:00:38;;;;;;;1.10;1.10;;;;;;;1.80;100.00;96764.16;5006838;28;20213;-69
2021/03/14 02:03:06;;;;;;;1.47;1.37;;;;;;;1.89;100.00;96759.91;5007103;28;20224;-68
2021/03/14 02:05:33;;;;;;;3.27;2.20;;;;;;;1.94;100.00;96749.84;5004119;28;20214;-68
2021/03/14 02:08:01;;;;;;;1.63;1.53;;;;;;;1.95;100.00;96748.06;5008459;28;20231;-68
2021/03/14 02:10:30;;;;;;;1.10;1.10;;;;;;;1.96;100.00;96753.16;5007536;28;20209;-69
2021/03/14 02:13:00;;;;;;;1.27;1.27;;;;;;;1.98;100.00;96748.59;5008432;28;20666;-67
2021/03/14 02:15:28;;;;;;;1.27;1.13;;;;;;;2.01;100.00;96747.50;5005242;28;20581;-69
2021/03/14 02:17:56;;;;;;;1.40;1.30;;;;;;;2.08;100.00;96759.03;5002414;28;20716;-67
2021/03/14 02:20:26;;;;;;;2.47;1.20;;;;;;;2.07;100.00;96762.63;5012995;28;20461;-68
2021/03/14 02:23:04;;;;;;;2.20;2.10;;;;;;;1.97;100.00;96762.63;5004159;28;20205;-69
2021/03/14 02:25:35;;;;;;;1.13;1.13;;;;;;;1.95;100.00;96758.53;5004799;28;20661;-69
2021/03/14 02:28:04;;;;;;;1.97;1.23;;;;;;;1.97;100.00;96767.84;5008377;28;20412;-68
2021/03/14 02:30:32;;;;;;;1.17;1.13;;;;;;;1.99;100.00;96772.97;5005040;28;20693;-67
2021/03/14 02:32:59;;;;;;;1.50;1.50;;;;;;;2.02;100.00;96767.44;5007655;28;20271;-67
2021/03/14 02:35:28;;;;;;;1.30;1.20;;;;;;;1.99;100.00;96770.34;5011120;28;20200;-68
2021/03/14 02:37:55;;;;;;;1.67;1.57;;;;;;;1.96;100.00;96784.50;5005035;28;20732;-68
2021/03/14 02:40:22;;;;;;;1.10;1.10;;;;;;;1.90;100.00;96769.38;5007111;28;20205;-68
2021/03/14 02:42:50;;;;;;;1.50;1.50;;;;;;;1.92;100.00;96771.88;5004133;28;20209;-68
2021/03/14 02:45:18;;;;;;;1.73;1.63;;;;;;;1.96;100.00;96763.59;5011256;28;20208;-68
2021/03/14 02:47:46;;;;;;;1.63;1.63;;;;;;;1.93;100.00;96766.50;5006429;28;20221;-68
2021/03/14 02:50:16;;;;;;;1.60;1.60;;;;;;;1.89;100.00;96762.50;5009531;28;20205;-67
2021/03/14 02:52:43;;;;;;;2.00;1.90;;;;;;;1.97;100.00;96764.44;5010181;28;20215;-66
2021/03/14 02:55:12;;;;;;;1.50;1.50;;;;;;;1.88;100.00;96776.53;5007148;28;20205;-67
2021/03/14 02:57:40;;;;;;;2.93;1.67;;;;;;;1.94;100.00;96785.63;5006936;28;20247;-68
2021/03/14 03:00:12;;;;;;;1.93;1.83;;;;;;;1.84;100.00;96785.63;5008794;28;20576;-68
2021/03/14 03:02:44;;;;;;;1.80;1.70;;;;;;;1.97;100.00;96790.56;5007720;28;20782;-68
2021/03/14 03:05:14;;;;;;;1.40;1.40;;;;;;;1.90;100.00;96790.28;5009409;28;20677;-68
2021/03/14 03:07:42;;;;;;;1.60;1.60;;;;;;;1.92;100.00;96790.97;5008739;28;20237;-68
2021/03/14 03:10:10;;;;;;;1.70;1.60;;;;;;;1.84;100.00;96802.09;5009358;28;20294;-68
2021/03/14 03:12:37;;;;;;;2.23;2.13;;;;;;;2.08;100.00;96803.47;5014443;28;20553;-68
2021/03/14 03:15:06;;;;;;;2.37;2.00;;;;;;;2.01;100.00;96813.66;5006340;28;21057;-68
2021/03/14 03:17:35;;;;;;;3.20;1.80;;;;;;;1.82;100.00;96835.38;5008318;28;20256;-67
2021/03/14 03:20:22;;;;;;;2.53;2.07;;;;;;;1.87;100.00;96848.84;5008593;28;20203;-68
2021/03/14 03:22:50;;;;;;;1.97;1.87;;;;;;;1.83;100.00;96847.47;5008234;28;20659;-68
2021/03/14 03:25:17;;;;;;;2.57;2.47;;;;;;;1.82;100.00;96858.91;5010028;28;20212;-69
2021/03/14 03:27:44;;;;;;;3.00;2.47;;;;;;;1.77;100.00;96860.28;5008289;28;20275;-69
2021/03/14 03:30:14;;;;;;;2.43;2.37;;;;;;;1.74;100.00;96866.59;5011649;28;20677;-69
2021/03/14 03:32:44;;;;;;;2.10;2.00;;;;;;;1.76;100.00;96869.09;5004315;28;20209;-69
2021/03/14 03:35:13;;;;;;;2.40;2.30;;;;;;;1.77;100.00;96868.94;5010011;28;20209;-70
2021/03/14 03:37:41;;;;;;;2.70;2.50;;;;;;;1.70;100.00;96871.25;5010235;28;20701;-69
2021/03/14 03:40:10;;;;;;;3.10;2.60;;;;;;;1.65;100.00;96867.41;5010924;28;20399;-69
2021/03/14 03:42:46;;;;;;;2.40;2.30;;;;;;;1.57;100.00;96871.53;5007185;28;20209;-68
2021/03/14 03:45:14;;;;;;;2.47;2.33;;;;;;;1.60;100.00;96875.66;5004758;28;20208;-68
2021/03/14 03:47:42;;;;;;;3.63;3.37;;;;;;;1.55;100.00;96872.63;5003245;28;20733;-69
2021/03/14 03:50:11;;;;;;;2.50;2.40;;;;;;;1.61;100.00;96879.91;5012379;28;20225;-69
2021/03/14 03:52:40;;;;;;;3.00;2.47;;;;;;;1.65;100.00;96883.91;5007446;28;20220;-69
2021/03/14 03:55:09;;;;;;;2.57;2.47;;;;;;;1.65;100.00;96881.28;5008217;28;20205;-68
2021/03/14 03:57:37;;;;;;;2.93;2.73;;;;;;;1.71;100.00;96885.16;5002289;28;20268;-68
2021/03/14 04:00:09;;;;;;;2.77;2.40;;;;;;;1.62;100.00;96886.78;5006914;28;20247;-69
2021/03/14 04:02:37;;;;;;;3.37;2.37;;;;;;;1.72;100.00;96884.19;5005274;28;20208;-69
2021/03/14 04:05:07;;;;;;;2.87;2.43;;;;;;;1.59;100.00;96884.44;5007544;28;20212;-70
2021/03/14 04:07:35;;;;;;;2.30;2.20;;;;;;;1.59;100.00;96900.13;5006951;28;20357;-69
2021/03/14 04:10:05;;;;;;;2.80;2.60;;;;;;;1.59;100.00;96900.94;5011105;28;20926;-69
2021/03/14 04:12:33;;;;;;;2.30;2.20;;;;;;;1.63;100.00;96903.28;5008861;28;20201;-70
2021/03/14 04:15:00;;;;;;;2.83;2.63;;;;;;;1.58;100.00;96908.91;5009991;28;20217;-68
2021/03/14 04:17:28;;;;;;;2.30;2.10;;;;;;;1.59;100.00;96915.78;5007223;28;20580;-69
2021/03/14 04:19:56;;;;;;;2.97;2.30;;;;;;;1.61;100.00;96924.31;5005351;28;20220;-68
2021/03/14 04:22:23;;;;;;;2.10;2.00;;;;;;;1.57;100.00;96912.47;5005302;28;20204;-69
2021/03/14 04:24:51;;;;;;;2.53;2.37;;;;;;;1.65;100.00;96927.50;5011145;28;20223;-69
2021/03/14 04:27:20;;;;;;;2.30;2.20;;;;;;;1.65;100.00;96930.91;5010408;28;20239;-68
2021/03/14 04:29:48;;;;;;;3.17;2.07;;;;;;;1.66;100.00;96934.38;5010677;28;20209;-69
2021/03/14 04:32:15;;;;;;;3.93;2.70;;;;;;;1.63;100.00;96943.28;5009835;28;20213;-68
2021/03/14 04:34:44;;;;;;;2.60;2.40;;;;;;;1.56;100.00;96940.41;5004889;28;20235;-69
2021/03/14 04:37:11;;;;;;;2.73;1.90;;;;;;;1.59;100.00;96945.34;5009179;28;20216;-68
2021/03/14 04:39:38;;;;;;;2.33;2.23;;;;;;;1.67;100.00;96954.28;5007051;28;20229;-69
2021/03/14 04:42:07;;;;;;;4.13;2.20;;;;;;;1.58;100.00;96953.31;5016533;28;20303;-70
2021/03/14 04:44:36;;;;;;;2.50;2.40;;;;;;;1.59;100.00;96960.19;5008972;28;20200;-69
2021/03/14 04:47:04;;;;;;;2.40;2.23;;;;;;;1.58;100.00;96967.19;5010748;28;20208;-69
2021/03/14 04:49:33;;;;;;;3.77;2.40;;;;;;;1.65;100.00;96977.94;5011130;28;20266;-68
2021/03/14 04:52:00;;;;;;;2.57;2.37;;;;;;;1.55;100.00;96977.06;5005863;28;20215;-68
2021/03/14 04:54:27;;;;;;;2.00;1.90;;;;;;;1.53;100.00;96992.06;5007278;28;20227;-70
2021/03/14 04:56:58;;;;;;;1.93;1.87;;;;;;;1.53;100.00;96995.50;5004676;28;20208;-69
2021/03/14 04:59:25;;;;;;;1.67;1.63;;;;;;;1.48;100.00;96991.63;5006374;28;20228;-69
2021/03/14 05:01:54;;;;;;;2.13;1.87;;;;;;;1.41;100.00;96992.16;5004011;28;20212;-68
2021/03/14 05:04:21;;;;;;;1.90;1.80;;;;;;;1.34;100.00;96998.84;4999703;28;20579;-68
2021/03/14 05:06:49;;;;;;;2.40;2.07;;;;;;;1.32;100.00;97005.16;5010482;28;20513;-69
2021/03/14 05:09:17;;;;;;;2.30;2.10;;;;;;;1.38;100.00;97004.63;5004221;28;20224;-68
2021/03/14 05:11:46;;;;;;;1.50;1.40;;;;;;;1.35;100.00;97002.28;5003431;28;20237;-69
2021/03/14 05:14:14;;;;;;;1.40;1.30;;;;;;;1.27;100.00;97014.19;5005219;28;20204;-71
2021/03/14 05:16:42;;;;;;;1.53;1.43;;;;;;;1.33;100.00;97015.47;5008528;28;20704;-70
2021/03/14 05:19:11;;;;;;;1.20;1.20;;;;;;;1.31;100.00;97030.41;5009836;28;20228;-71
2021/03/14 05:21:57;;;;;;;1.00;1.00;;;;;;;1.35;100.00;97021.41;5004853;28;20200;-70
2021/03/14 05:24:24;;;;;;;1.30;1.30;;;;;;;1.34;100.00;97037.19;5009139;28;20231;-70
2021/03/14 05:26:51;;;;;;;1.20;1.20;;;;;;;1.31;100.00;97033.03;5001568;28;20213;-70
2021/03/14 05:29:18;;;;;;;1.00;1.00;;;;;;;1.30;100.00;97041.81;5006906;28;20220;-69
2021/03/14 05:31:45;;;;;;;0.97;0.97;;;;;;;1.32;100.00;97052.13;4998952;28;20412;-70
2021/03/14 05:34:16;;;;;;;0.90;0.90;;;;;;;1.29;100.00;97048.84;5002959;28;20215;-70
2021/03/14 05:36:44;;;;;;;0.93;0.93;;;;;;;1.31;100.00;97053.91;5004752;28;20208;-70
2021/03/14 05:39:12;;;;;;;1.13;1.13;;;;;;;1.26;100.00;97063.91;4999621;28;20232;-70
2021/03/14 05:41:41;;;;;;;0.93;0.93;;;;;;;1.26;100.00;97063.91;5002221;28;20593;-69
2021/03/14 05:44:09;;;;;;;1.03;1.03;;;;;;;1.24;100.00;97078.88;4997996;28;20594;-71
2021/03/14 05:46:37;;;;;;;1.57;1.50;;;;;;;1.27;100.00;97082.06;5001668;28;20209;-71
2021/03/14 05:49:05;;;;;;;4.47;1.30;;;;;;;1.25;100.00;97083.97;4997349;28;21175;-70
2021/03/14 05:51:35;;;;;;;1.50;1.50;;;;;;;1.29;100.00;97093.22;5006159;28;20646;-71
2021/03/14 05:54:02;;;;;;;1.60;1.50;;;;;;;1.27;100.00;97092.50;5007813;28;20209;-69
2021/03/14 05:56:29;;;;;;;1.70;1.60;;;;;;;1.34;100.00;97102.44;5004691;28;20284;-68
2021/03/14 05:58:57;;;;;;;2.63;1.73;;;;;;;1.29;100.00;97110.63;5005362;28;20236;-71
2021/03/14 06:01:28;;;;;;;1.40;1.40;;;;;;;1.33;100.00;97119.06;5014158;28;20204;-69
2021/03/14 06:03:57;;;;;;;2.17;1.90;;;;;;;1.31;100.00;97116.56;5003060;28;20776;-69
2021/03/14 06:06:24;;;;;;;1.63;1.53;;;;;;;1.34;100.00;97128.53;5009060;28;20580;-69
2021/03/14 06:08:53;;;;;;;1.93;1.80;;;;;;;1.39;100.00;97131.59;5005131;28;20303;-69
2021/03/14 06:11:20;;;;;;;2.40;2.30;;;;;;;1.32;100.00;97143.50;5006931;28;20690;-70
2021/03/14 06:13:47;;;;;;;4.33;2.00;;;;;;;1.31;100.00;97140.06;5003334;28;20926;-69
2021/03/14 06:16:15;;;;;;;2.20;2.10;;;;;;;1.42;100.00;97147.00;5003554;28;20654;-70
2021/03/14 06:18:43;;;;;;;2.17;2.00;;;;;;;1.43;100.00;97135.59;5004235;28;20335;-69
2021/03/14 06:21:21;;;;;;;2.00;1.90;;;;;;;1.39;100.00;97153.31;5001090;28;20215;-69
2021/03/14 06:23:59;;;;;;;2.57;1.97;;;;;;;1.37;100.00;97149.19;5007823;28;20212;-69
2021/03/14 06:26:34;;;;;;;2.27;2.07;;;;;;;1.35;100.00;97157.16;5004175;28;20618;-70
2021/03/14 06:29:21;;;;;;;2.23;2.13;;;;;;;1.35;100.00;97164.13;5010338;28;20219;-70
2021/03/14 06:31:50;;;;;;;2.40;2.13;;;;;;;1.40;100.00;97170.66;5008402;28;20205;-69
2021/03/14 06:34:24;;;;;;;4.90;4.50;;;;;;;1.40;100.00;97168.03;5008345;28;20848;-71
2021/03/14 06:36:52;;;;;;;3.53;2.97;;;;;;;1.46;100.00;97182.34;5008303;28;20588;-71
2021/03/14 06:39:25;;;;;;;14.47;12.00;;;;;;;1.45;100.00;97180.69;5008853;28;20228;-71
2021/03/14 06:41:52;;;;;;;4.93;4.53;;;;;;;1.47;100.00;97188.41;5007300;28;20212;-71
2021/03/14 06:44:39;;;;;;;6.07;5.67;;;;;;;1.47;100.00;97186.63;5011821;28;20273;-70
2021/03/14 06:47:07;;;;;;;6.60;6.00;;;;;;;1.51;100.00;97192.44;5009977;28;20200;-71
2021/03/14 06:49:38;;;;;;;12.77;8.70;;;;;;;1.58;100.00;97204.88;5009409;28;20256;-69
2021/03/14 06:52:06;;;;;;;6.90;5.40;;;;;;;1.65;99.74;97194.72;5006571;28;20228;-70
2021/03/14 06:54:35;;;;;;;7.63;5.00;;;;;;;1.69;100.00;97197.91;5007570;28;20217;-70
2021/03/14 06:57:09;;;;;;;44.00;19.43;;;;;;;1.78;98.48;97204.16;5009503;28;20232;-70
2021/03/14 06:59:38;;;;;;;4.53;4.13;;;;;;;1.75;98.61;97196.59;5016080;28;20227;-71
2021/03/14 07:02:07;;;;;;;12.33;7.87;;;;;;;1.88;97.45;97205.84;5006105;28;20580;-70
2021/03/14 07:04:46;;;;;;;3.30;3.10;;;;;;;1.91;96.77;97212.63;5013748;28;20283;-70
2021/03/14 07:07:18;;;;;;;7.03;3.70;;;;;;;1.90;96.75;97216.19;5011113;28;20706;-68
2021/03/14 07:09:47;;;;;;;3.23;3.00;;;;;;;1.90;97.26;97224.03;5011655;28;20217;-70
2021/03/14 07:12:19;;;;;;;10.93;5.67;;;;;;;1.99;96.06;97225.06;5007252;28;20197;-71
2021/03/14 07:14:47;;;;;;;19.70;9.50;;;;;;;1.96;95.75;97233.16;5007364;28;20232;-69
2021/03/14 07:17:29;;;;;;;8.30;5.00;;;;;;;1.96;96.97;97247.03;5008713;28;20207;-68
2021/03/14 07:19:58;;;;;;;20.87;12.00;;;;;;;2.04;96.76;97256.84;5004969;28;20225;-71
2021/03/14 07:22:26;;;;;;;4.37;4.07;;;;;;;1.97;97.23;97261.75;5005480;28;20344;-71
2021/03/14 07:24:54;;;;;;;9.77;6.10;;;;;;;1.98;97.46;97262.59;5009890;28;20304;-77
2021/03/14 07:27:23;;;;;;;4.50;4.10;;;;;;;2.04;98.30;97267.31;5009171;28;20512;-70
2021/03/14 07:29:52;;;;;;;9.57;7.20;;;;;;;2.02;96.27;97275.25;5005486;28;20215;-70
2021/03/14 07:32:21;;;;;;;3.70;3.40;;;;;;;1.92;97.25;97273.56;5008088;28;20214;-70
2021/03/14 07:34:48;;;;;;;11.27;8.37;;;;;;;1.99;98.63;97278.13;5005000;28;20212;-68
2021/03/14 07:37:16;;;;;;;6.00;4.87;;;;;;;2.01;98.97;97288.47;5006864;28;20219;-70
2021/03/14 07:39:46;;;;;;;7.07;3.80;;;;;;;2.03;98.15;97295.22;5007080;28;20232;-70
2021/03/14 07:42:14;;;;;;;3.30;3.10;;;;;;;2.00;97.26;97290.25;5005348;28;20208;-71
2021/03/14 07:44:43;;;;;;;5.33;4.67;;;;;;;2.34;99.53;97301.47;5005952;28;20205;-75
2021/03/14 07:47:14;;;;;;;13.23;9.23;;;;;;;2.37;96.49;97309.03;5000756;28;20225;-72
2021/03/14 07:49:43;;;;;;;4.20;3.87;;;;;;;2.09;96.26;97306.16;5003558;28;20235;-70
2021/03/14 07:52:16;;;;;;;7.10;5.90;;;;;;;2.00;98.01;97310.34;5003822;28;20204;-69
2021/03/14 07:54:45;;;;;;;5.17;3.77;;;;;;;1.97;98.08;97319.25;5008930;28;20205;-70
2021/03/14 07:57:12;;;;;;;3.50;3.30;;;;;;;2.03;97.46;97323.16;5009366;28;20212;-69
2021/03/14 07:59:42;;;;;;;6.57;5.83;;;;;;;2.15;95.97;97334.38;5006033;28;20248;-69
2021/03/14 08:02:25;;;;;;;37.83;34.50;;;;;;;2.21;98.09;97327.81;5005115;28;20580;-70
2021/03/14 08:04:54;;;;;;;6.80;6.30;;;;;;;2.42;97.31;97340.88;5002269;28;20219;-70
2021/03/14 08:07:41;;;;;;;9.60;8.87;;;;;;;2.52;96.28;97359.25;5006340;28;20240;-69
2021/03/14 08:10:09;;;;;;;27.63;25.07;;;;;;;2.42;94.50;97356.56;5009104;28;20205;-70
2021/03/14 08:12:37;;;;;;;18.73;17.17;;;;;;;2.43;94.53;97358.22;5012004;28;20228;-71
2021/03/14 08:15:21;;;;;;;37.73;34.23;;;;;;;2.48;95.32;97361.31;5009303;28;20213;-69
2021/03/14 08:17:49;;;;;;;9.37;8.63;;;;;;;2.50;93.87;97376.84;5006234;28;20691;-69
2021/03/14 08:20:35;;;;;;;3.53;3.23;;;;;;;2.46;92.76;97376.25;5009651;28;20502;-68
2021/03/14 08:23:02;;;;;;;6.50;6.00;;;;;;;2.55;91.90;97370.28;5002233;28;20603;-71
2021/03/14 08:25:31;;;;;;;6.30;5.73;;;;;;;2.57;91.34;97386.69;5009164;28;20208;-68
2021/03/14 08:28:01;;;;;;;9.73;8.93;;;;;;;2.70;91.65;97383.03;5008863;28;20303;-70
2021/03/14 08:30:48;;;;;;;5.57;5.00;;;;;;;2.88;91.82;97396.34;5007331;28;20591;-70
2021/03/14 08:33:26;;;;;;;4.43;3.03;;;;;;;2.77;89.80;97394.63;5002009;28;20220;-70
2021/03/14 08:35:58;;;;;;;3.30;3.10;;;;;;;2.76;88.14;97398.19;5000276;28;20319;-70
2021/03/14 08:38:27;;;;;;;5.07;4.17;;;;;;;2.69;88.60;97408.38;5009791;28;20236;-70
2021/03/14 08:41:27;;;;;;;4.10;3.30;;;;;;;2.62;88.19;97409.81;5004868;28;20213;-69
2021/03/14 08:43:56;;;;;;;4.70;3.70;;;;;;;2.73;88.09;97411.53;5006418;28;20301;-68
2021/03/14 08:47:05;;;;;;;7.47;4.00;;;;;;;2.82;88.49;97417.81;5004519;28;20207;-71
2021/03/14 08:49:35;;;;;;;4.43;3.77;;;;;;;2.83;89.64;97412.44;5006423;28;21524;-70
2021/03/14 08:52:03;;;;;;;2.80;2.70;;;;;;;2.78;87.85;97414.59;5006515;28;20651;-70
2021/03/14 08:54:34;;;;;;;4.63;3.80;;;;;;;2.82;88.28;97410.75;5006946;28;20211;-70
2021/03/14 08:57:04;;;;;;;4.10;3.70;;;;;;;2.85;87.91;97418.38;5004684;28;20215;-70
2021/03/14 08:59:31;;;;;;;3.00;2.80;;;;;;;2.97;87.65;97434.00;5003209;28;20235;-69
2021/03/14 09:02:00;;;;;;;4.13;3.73;;;;;;;2.88;87.65;97431.22;5005743;28;20563;-69
2021/03/14 09:04:29;;;;;;;3.03;2.83;;;;;;;2.95;87.27;97425.47;5005763;28;20205;-68
2021/03/14 09:07:08;;;;;;;4.63;4.23;;;;;;;2.93;87.02;97435.22;5007086;28;20208;-70
2021/03/14 09:09:36;;;;;;;4.20;3.80;;;;;;;3.03;87.35;97438.72;5004939;28;20205;-70
2021/03/14 09:14:39;;;;;;;3.17;2.97;;;;;;;2.80;87.30;97432.81;4985935;22;21131;-70
2021/03/14 09:17:10;;;;;;;5.33;3.77;;;;;;;2.83;87.63;97433.38;4998538;28;20216;-71
2021/03/14 09:19:43;;;;;;;4.00;3.63;;;;;;;2.82;85.80;97436.13;4993153;28;20303;-71
2021/03/14 09:22:19;;;;;;;4.43;4.07;;;;;;;3.09;85.65;97434.75;4999305;28;20416;-71
2021/03/14 09:24:57;;;;;;;6.10;3.80;;;;;;;3.22;83.71;97437.97;4972330;28;21178;-70
2021/03/14 09:27:25;;;;;;;4.17;3.80;;;;;;;3.40;83.19;97435.56;4995024;28;20635;-70
2021/03/14 09:29:54;;;;;;;3.30;2.97;;;;;;;3.28;81.35;97442.69;4995047;28;20201;-69
2021/03/14 09:32:27;;;;;;;4.23;3.83;;;;;;;3.26;82.23;97439.38;4996062;28;20205;-71
2021/03/14 09:35:18;;;;;;;2.43;2.33;;;;;;;3.45;80.87;97443.84;5002653;28;20700;-71
2021/03/14 09:37:49;;;;;;;5.00;2.97;;;;;;;3.46;79.76;97481.38;4997766;28;20219;-70
2021/03/14 09:40:22;;;;;;;7.30;6.47;;;;;;;3.58;78.94;97446.25;4998612;28;20565;-70
2021/03/14 09:42:50;;;;;;;8.50;6.83;;;;;;;3.79;77.72;97436.66;4987509;28;20622;-70
2021/03/14 09:45:19;;;;;;;2.50;2.37;;;;;;;3.71;75.73;97451.25;4995659;28;20205;-70
2021/03/14 09:48:14;;;;;;;2.93;2.73;;;;;;;3.65;78.07;97448.34;4997142;28;20692;-70
2021/03/14 09:50:44;;;;;;;2.87;2.63;;;;;;;3.75;75.57;97451.81;4978396;28;20213;-71
2021/03/14 09:53:13;;;;;;;3.83;2.77;;;;;;;3.86;75.22;97454.34;5001500;28;20332;-70
2021/03/14 09:55:41;;;;;;;4.83;3.03;;;;;;;3.79;76.54;97455.00;5004893;28;20216;-71
2021/03/14 09:58:10;;;;;;;2.50;2.40;;;;;;;3.93;74.35;97443.31;4999422;28;20205;-70
2021/03/14 10:00:37;;;;;;;4.17;2.77;;;;;;;3.75;74.45;97446.56;4998261;28;20584;-70
2021/03/14 10:03:06;;;;;;;3.70;3.37;;;;;;;3.78;75.11;97461.19;4979059;28;20736;-70
2021/03/14 10:05:42;;;;;;;5.10;3.17;;;;;;;3.68;76.60;97448.91;4999045;28;20228;-71
2021/03/14 10:08:12;;;;;;;3.37;2.93;;;;;;;3.67;76.51;97462.13;4987338;28;20589;-70
2021/03/14 10:10:40;;;;;;;3.47;2.70;;;;;;;3.73;77.90;97449.34;4996528;28;20213;-70
2021/03/14 10:13:17;;;;;;;3.20;2.90;;;;;;;3.71;78.33;97459.13;5001176;28;20267;-71
2021/03/14 10:15:44;;;;;;;2.60;2.40;;;;;;;3.87;76.80;97457.75;4987951;28;20209;-71
2021/03/14 10:18:17;;;;;;;3.33;2.47;;;;;;;3.85;77.13;97462.31;4997757;28;20205;-70
2021/03/14 10:20:45;;;;;;;3.00;2.80;;;;;;;3.88;74.94;97456.81;4999596;28;20228;-71
2021/03/14 10:23:12;;;;;;;2.63;2.43;;;;;;;3.73;75.53;97477.31;4995057;28;20457;-72
2021/03/14 10:25:40;;;;;;;7.77;3.23;;;;;;;4.04;77.20;97458.91;4995653;28;20238;-68
2021/03/14 10:28:13;;;;;;;3.90;3.53;;;;;;;4.12;74.54;97453.00;4996901;28;20578;-68
2021/03/14 10:30:42;;;;;;;2.87;2.53;;;;;;;4.44;73.52;97459.78;4996001;28;20296;-68
2021/03/14 10:33:13;;;;;;;2.97;2.73;;;;;;;4.66;71.90;97455.19;4990061;28;20864;-70
2021/03/14 10:35:42;;;;;;;2.60;2.40;;;;;;;4.37;68.68;97453.44;4989627;28;20280;-69
2021/03/14 10:38:16;;;;;;;5.73;3.17;;;;;;;4.34;68.25;97462.38;4995212;28;20538;-70
2021/03/14 10:40:45;;;;;;;2.33;2.13;;;;;;;4.22;68.27;97456.44;4993148;28;20209;-69
2021/03/14 10:43:20;;;;;;;4.83;2.90;;;;;;;4.30;67.58;97455.75;4993445;28;20687;-70
2021/03/14 10:45:48;;;;;;;3.30;1.97;;;;;;;4.24;69.01;97453.69;4980847;28;20328;-70
2021/03/14 10:48:15;;;;;;;2.40;2.20;;;;;;;4.26;70.46;97459.63;4991779;28;20343;-67
2021/03/14 10:50:43;;;;;;;3.27;2.60;;;;;;;4.10;70.28;97468.84;4997479;28;20212;-68
2021/03/14 10:53:11;;;;;;;3.17;2.97;;;;;;;4.16;70.71;97464.84;4998419;28;20233;-68
2021/03/14 10:56:01;;;;;;;2.80;2.57;;;;;;;4.38;72.20;97468.19;4990711;28;20288;-67
2021/03/14 10:58:35;;;;;;;2.90;2.53;;;;;;;4.38;68.65;97457.72;4990987;28;20589;-68
2021/03/14 11:01:05;;;;;;;2.80;2.60;;;;;;;4.19;70.10;97488.19;5004150;28;20295;-67
2021/03/14 11:03:37;;;;;;;2.60;2.40;;;;;;;4.27;69.24;97477.84;4997558;28;20530;-67
2021/03/14 11:06:10;;;;;;;2.97;2.77;;;;;;;4.25;71.79;97460.59;5001706;28;20511;-67
2021/03/14 11:08:46;;;;;;;2.43;2.30;;;;;;;4.26;70.46;97463.06;5000063;28;20233;-68
2021/03/14 11:11:14;;;;;;;2.80;2.60;;;;;;;4.16;70.75;97463.06;5003792;28;20213;-68
2021/03/14 11:13:41;;;;;;;3.03;2.43;;;;;;;4.18;70.66;97458.53;4999654;28;20236;-68
2021/03/14 11:16:10;;;;;;;2.43;2.23;;;;;;;4.33;69.43;97458.09;5000106;28;20208;-68
2021/03/14 11:18:37;;;;;;;2.70;2.53;;;;;;;3.96;67.91;97456.94;5003423;28;20283;-68
2021/03/14 11:21:05;;;;;;;2.43;2.20;;;;;;;4.17;67.99;97442.91;4999757;28;20623;-68
2021/03/14 11:23:32;;;;;;;2.87;2.77;;;;;;;4.60;67.55;97456.59;5002368;28;20476;-68
2021/03/14 11:25:59;;;;;;;2.30;2.07;;;;;;;4.95;63.82;97463.03;5000985;28;20209;-68
2021/03/14 11:28:27;;;;;;;2.10;2.00;;;;;;;4.91;61.13;97436.22;5002140;28;20267;-68
2021/03/14 11:30:55;;;;;;;2.50;2.30;;;;;;;5.16;60.75;97441.84;4997925;28;20217;-68
2021/03/14 11:33:22;;;;;;;2.03;1.93;;;;;;;5.10;59.35;97431.88;4992923;28;20229;-67
2021/03/14 11:35:50;;;;;;;3.97;2.77;;;;;;;5.32;58.95;97429.88;5000357;28;20678;-67
2021/03/14 11:38:17;;;;;;;2.17;1.83;;;;;;;5.38;57.62;97412.72;5000240;28;20588;-67
2021/03/14 11:40:44;;;;;;;4.17;2.40;;;;;;;5.69;57.10;97423.75;5006316;28;20339;-67
2021/03/14 11:43:11;;;;;;;2.53;2.30;;;;;;;5.51;54.02;97431.59;4998276;28;20607;-66
2021/03/14 11:45:39;;;;;;;2.03;1.93;;;;;;;5.29;54.46;97435.44;5004921;28;20214;-67
2021/03/14 11:48:07;;;;;;;3.17;2.23;;;;;;;5.38;52.76;97412.72;4994074;28;20670;-67
2021/03/14 11:50:34;;;;;;;2.97;1.90;;;;;;;5.41;52.72;97421.13;5000167;28;20252;-66